createdAt,value
2024-02-24T00:00:10.450Z,93338.00
2024-02-24T00:01:10.499Z,93340.00
2024-02-24T00:02:10.563Z,93340.00
2024-02-24T00:03:10.550Z,93339.00
2024-02-24T00:04:10.603Z,93338.00
2024-02-24T00:05:10.638Z,93338.00
2024-02-24T00:06:10.614Z,93342.00
2024-02-24T00:07:10.673Z,93341.00
2024-02-24T00:08:10.734Z,93343.00
2024-02-24T00:09:10.755Z,93346.00
2024-02-24T00:10:10.798Z,93350.00
2024-02-24T00:11:10.902Z,93351.00
2024-02-24T00:12:10.916Z,93355.00
2024-02-24T00:13:10.924Z,93360.00
2024-02-24T00:14:10.959Z,93365.00
2024-02-24T00:15:10.974Z,93362.00
2024-02-24T00:16:11.042Z,93363.00
2024-02-24T00:17:11.105Z,93367.00
2024-02-24T00:18:11.128Z,93367.00
2024-02-24T00:19:11.198Z,93368.00
2024-02-24T00:20:11.266Z,93368.00
2024-02-24T00:21:11.219Z,93369.00
2024-02-24T00:22:11.282Z,93371.00
2024-02-24T00:23:11.381Z,93369.00
2024-02-24T00:24:11.360Z,93369.00
2024-02-24T00:25:11.397Z,93370.00
2024-02-24T00:26:11.447Z,93365.00
2024-02-24T00:27:11.484Z,93364.00
2024-02-24T00:28:11.530Z,93364.00
2024-02-24T00:29:11.611Z,93365.00
2024-02-24T00:30:11.616Z,93363.00
2024-02-24T00:31:11.653Z,93364.00
2024-02-24T00:32:11.733Z,93363.00
2024-02-24T00:33:11.736Z,93364.00
2024-02-24T00:34:11.828Z,93367.00
2024-02-24T00:35:11.855Z,93366.00
2024-02-24T00:36:11.833Z,93365.00
2024-02-24T00:37:11.919Z,93367.00
2024-02-24T00:38:11.926Z,93366.00
2024-02-24T00:39:11.983Z,93368.00
2024-02-24T00:40:12.020Z,93367.00
2024-02-24T00:41:12.117Z,93372.00
2024-02-24T00:42:12.078Z,93373.00
2024-02-24T00:43:12.143Z,93375.00
2024-02-24T00:44:12.223Z,93378.00
2024-02-24T00:45:12.330Z,93381.00
2024-02-24T00:46:12.296Z,93381.00
2024-02-24T00:47:12.334Z,93383.00
2024-02-24T00:48:12.396Z,93385.00
2024-02-24T00:49:12.452Z,93385.00
2024-02-24T00:50:12.494Z,93388.00
2024-02-24T00:51:12.497Z,93389.00
2024-02-24T00:52:12.548Z,93390.00
2024-02-24T00:53:12.650Z,93391.00
2024-02-24T00:54:12.680Z,93391.00
2024-02-24T00:55:12.697Z,93391.00
2024-02-24T00:56:12.756Z,93394.00
2024-02-24T00:57:12.765Z,93397.00
2024-02-24T00:58:12.837Z,93398.00
2024-02-24T00:59:12.882Z,93401.00
2024-02-24T01:00:12.921Z,93403.00
2024-02-24T01:01:12.992Z,93404.00
2024-02-24T01:02:13.036Z,93405.00
2024-02-24T01:03:13.053Z,93405.00
2024-02-24T01:04:13.113Z,93407.00
2024-02-24T01:05:13.201Z,93406.00
2024-02-24T01:06:13.182Z,93406.00
2024-02-24T01:07:13.250Z,93403.00
2024-02-24T01:08:13.316Z,93405.00
2024-02-24T01:09:13.348Z,93403.00
2024-02-24T01:10:13.403Z,93402.00
2024-02-24T01:11:13.504Z,93402.00
2024-02-24T01:12:13.489Z,93401.00
2024-02-24T01:13:13.536Z,93400.00
2024-02-24T01:14:13.720Z,93403.00
2024-02-24T01:15:13.716Z,93405.00
2024-02-24T01:16:13.637Z,93406.00
2024-02-24T01:17:13.746Z,93407.00
2024-02-24T01:18:13.950Z,93409.00
2024-02-24T01:19:13.944Z,93409.00
2024-02-24T01:20:13.900Z,93409.00
2024-02-24T01:21:13.902Z,93410.00
2024-02-24T01:22:13.963Z,93410.00
2024-02-24T01:23:14.044Z,93410.00
2024-02-24T01:24:14.068Z,93412.00
2024-02-24T01:25:14.115Z,93411.00
2024-02-24T01:26:14.165Z,93413.00
2024-02-24T01:27:14.185Z,93413.00
2024-02-24T01:28:14.248Z,93414.00
2024-02-24T01:29:14.345Z,93415.00
2024-02-24T01:30:14.325Z,93414.00
2024-02-24T01:31:14.361Z,93415.00
2024-02-24T01:32:14.529Z,93417.00
2024-02-24T01:33:14.628Z,93418.00
2024-02-24T01:34:14.577Z,93416.00
2024-02-24T01:35:14.651Z,93419.00
2024-02-24T01:36:14.667Z,93419.00
2024-02-24T01:37:14.670Z,93421.00
2024-02-24T01:38:14.808Z,93419.00
2024-02-24T01:39:14.782Z,93417.00
2024-02-24T01:40:14.880Z,93419.00
2024-02-24T01:41:14.968Z,93416.00
2024-02-24T01:42:14.937Z,93418.00
2024-02-24T01:43:14.997Z,93420.00
2024-02-24T01:44:15.079Z,93421.00
2024-02-24T01:45:15.135Z,93420.00
2024-02-24T01:46:15.190Z,93423.00
2024-02-24T01:47:15.215Z,93425.00
2024-02-24T01:48:15.351Z,93425.00
2024-02-24T01:49:15.355Z,93426.00
2024-02-24T01:50:15.451Z,93426.00
2024-02-24T01:51:15.514Z,93429.00
2024-02-24T01:52:15.550Z,93430.00
2024-02-24T01:53:15.643Z,93431.00
2024-02-24T01:54:15.631Z,93434.00
2024-02-24T01:55:15.646Z,93436.00
2024-02-24T01:56:15.738Z,93436.00
2024-02-24T01:57:15.770Z,93435.00
2024-02-24T01:58:15.872Z,93436.00
2024-02-24T01:59:15.916Z,93434.00
2024-02-24T02:00:15.980Z,93434.00
2024-02-24T02:01:16.039Z,93434.00
2024-02-24T02:02:16.086Z,93436.00
2024-02-24T02:03:16.123Z,93437.00
2024-02-24T02:04:16.197Z,93436.00
2024-02-24T02:05:16.256Z,93439.00
2024-02-24T02:06:16.432Z,93442.00
2024-02-24T02:07:16.327Z,93442.00
2024-02-24T02:08:16.444Z,93442.00
2024-02-24T02:09:16.467Z,93440.00
2024-02-24T02:10:16.521Z,93437.00
2024-02-24T02:11:16.624Z,93441.00
2024-02-24T02:12:16.678Z,93437.00
2024-02-24T02:13:16.713Z,93438.00
2024-02-24T02:14:16.797Z,93436.00
2024-02-24T02:15:16.801Z,93435.00
2024-02-24T02:16:16.841Z,93437.00
2024-02-24T02:17:16.887Z,93436.00
2024-02-24T02:18:17.069Z,93437.00
2024-02-24T02:19:17.050Z,93438.00
2024-02-24T02:20:17.128Z,93439.00
2024-02-24T02:21:17.110Z,93439.00
2024-02-24T02:22:17.196Z,93440.00
2024-02-24T02:23:17.247Z,93440.00
2024-02-24T02:24:17.288Z,93439.00
2024-02-24T02:25:17.357Z,93441.00
2024-02-24T02:26:17.415Z,93442.00
2024-02-24T02:27:17.457Z,93442.00
2024-02-24T02:28:17.554Z,93443.00
2024-02-24T02:29:17.597Z,93443.00
2024-02-24T02:30:17.620Z,93442.00
2024-02-24T02:31:17.666Z,93442.00
2024-02-24T02:32:17.731Z,93442.00
2024-02-24T02:33:17.909Z,93441.00
2024-02-24T02:34:18.123Z,93440.00
2024-02-24T02:35:17.978Z,93441.00
2024-02-24T02:36:17.927Z,93441.00
2024-02-24T02:37:18.016Z,93441.00
2024-02-24T02:38:18.089Z,93437.00
2024-02-24T02:39:18.111Z,93442.00
2024-02-24T02:40:18.159Z,93443.00
2024-02-24T02:41:18.303Z,93443.00
2024-02-24T02:42:18.298Z,93444.00
2024-02-24T02:43:18.390Z,93444.00
2024-02-24T02:44:18.460Z,93444.00
2024-02-24T02:45:18.466Z,93444.00
2024-02-24T02:46:18.572Z,93444.00
2024-02-24T02:47:23.407Z,93444.00
2024-02-24T02:48:19.716Z,93441.00
2024-02-24T02:49:18.922Z,93440.00
2024-02-24T02:50:18.617Z,93439.00
2024-02-24T02:51:18.594Z,93441.00
2024-02-24T02:52:18.597Z,93442.00
2024-02-24T02:53:18.635Z,93443.00
2024-02-24T02:54:18.605Z,93440.00
2024-02-24T02:55:18.628Z,93441.00
2024-02-24T02:56:18.711Z,93439.00
2024-02-24T02:57:18.691Z,93443.00
2024-02-24T02:58:18.734Z,93443.00
2024-02-24T02:59:18.777Z,93444.00
2024-02-24T03:00:18.859Z,93445.00
2024-02-24T03:01:19.105Z,93446.00
2024-02-24T03:02:19.067Z,93446.00
2024-02-24T03:03:19.044Z,93446.00
2024-02-24T03:04:19.083Z,93446.00
2024-02-24T03:05:19.216Z,93445.00
2024-02-24T03:06:19.347Z,93447.00
2024-02-24T03:07:19.283Z,93447.00
2024-02-24T03:08:19.375Z,93448.00
2024-02-24T03:09:19.403Z,93451.00
2024-02-24T03:10:19.474Z,93448.00
2024-02-24T03:11:19.652Z,93448.00
2024-02-24T03:12:19.723Z,93449.00
2024-02-24T03:13:19.680Z,93452.00
2024-02-24T03:14:19.792Z,93452.00
2024-02-24T03:15:19.759Z,93453.00
2024-02-24T03:16:20.036Z,93455.00
2024-02-24T03:17:19.907Z,93455.00
2024-02-24T03:18:20.042Z,93457.00
2024-02-24T03:19:20.024Z,93460.00
2024-02-24T03:20:20.136Z,93459.00
2024-02-24T03:21:20.160Z,93459.00
2024-02-24T03:22:20.256Z,93460.00
2024-02-24T03:23:20.277Z,93460.00
2024-02-24T03:24:20.382Z,93461.00
2024-02-24T03:25:20.389Z,93464.00
2024-02-24T03:26:20.479Z,93462.00
2024-02-24T03:27:20.492Z,93462.00
2024-02-24T03:28:20.559Z,93461.00
2024-02-24T03:29:20.678Z,93463.00
2024-02-24T03:30:20.692Z,93461.00
2024-02-24T03:31:20.764Z,93464.00
2024-02-24T03:32:20.834Z,93464.00
2024-02-24T03:33:20.953Z,93467.00
2024-02-24T03:34:20.980Z,93469.00
2024-02-24T03:35:21.082Z,93469.00
2024-02-24T03:36:21.066Z,93471.00
2024-02-24T03:37:21.169Z,93472.00
2024-02-24T03:38:21.250Z,93472.00
2024-02-24T03:39:21.265Z,93473.00
2024-02-24T03:40:21.330Z,93473.00
2024-02-24T03:41:21.430Z,93474.00
2024-02-24T03:42:21.461Z,93475.00
2024-02-24T03:43:21.537Z,93473.00
2024-02-24T03:44:21.674Z,93475.00
2024-02-24T03:45:21.670Z,93474.00
2024-02-24T03:46:21.717Z,93473.00
2024-02-24T03:47:21.810Z,93472.00
2024-02-24T03:48:21.933Z,93474.00
2024-02-24T03:49:21.971Z,93474.00
2024-02-24T03:50:22.016Z,93475.00
2024-02-24T03:51:22.073Z,93477.00
2024-02-24T03:52:22.221Z,93476.00
2024-02-24T03:53:22.225Z,93476.00
2024-02-24T03:54:22.302Z,93476.00
2024-02-24T03:55:22.327Z,93475.00
2024-02-24T03:56:22.438Z,93474.00
2024-02-24T03:57:22.472Z,93475.00
2024-02-24T03:58:22.548Z,93474.00
2024-02-24T03:59:22.642Z,93476.00
2024-02-24T04:00:22.641Z,93477.00
2024-02-24T04:01:22.759Z,93477.00
2024-02-24T04:02:22.799Z,93473.00
2024-02-24T04:03:22.898Z,93472.00
2024-02-24T04:04:22.990Z,93468.00
2024-02-24T04:05:23.000Z,93471.00
2024-02-24T04:06:23.082Z,93471.00
2024-02-24T04:07:23.104Z,93471.00
2024-02-24T04:08:23.249Z,93471.00
2024-02-24T04:09:23.274Z,93473.00
2024-02-24T04:10:23.349Z,93471.00
2024-02-24T04:11:23.484Z,93473.00
2024-02-24T04:12:23.508Z,93475.00
2024-02-24T04:13:23.544Z,93474.00
2024-02-24T04:14:23.623Z,93476.00
2024-02-24T04:15:23.671Z,93475.00
2024-02-24T04:16:23.720Z,93479.00
2024-02-24T04:17:23.836Z,93477.00
2024-02-24T04:18:24.019Z,93474.00
2024-02-24T04:19:24.019Z,93474.00
2024-02-24T04:20:24.037Z,93476.00
2024-02-24T04:21:24.212Z,93478.00
2024-02-24T04:22:24.146Z,93477.00
2024-02-24T04:23:24.263Z,93478.00
2024-02-24T04:24:24.278Z,93477.00
2024-02-24T04:25:24.365Z,93481.00
2024-02-24T04:26:31.608Z,93481.00
2024-02-24T04:27:31.555Z,93480.00
2024-02-24T04:28:31.600Z,93480.00
2024-02-24T04:29:31.686Z,93480.00
2024-02-24T04:30:31.557Z,93481.00
2024-02-24T04:31:38.817Z,93480.00
2024-02-24T04:32:38.891Z,93482.00
2024-02-24T04:33:38.872Z,93481.00
2024-02-24T04:34:38.865Z,93482.00
2024-02-24T04:35:38.840Z,93483.00
2024-02-24T04:36:38.808Z,93485.00
2024-02-24T04:37:38.846Z,93487.00
2024-02-24T04:38:38.808Z,93488.00
2024-02-24T04:39:38.779Z,93490.00
2024-02-24T04:40:38.789Z,93491.00
2024-02-24T04:41:38.888Z,93492.00
2024-02-24T04:42:38.796Z,93490.00
2024-02-24T04:43:38.803Z,93490.00
2024-02-24T04:44:38.827Z,93492.00
2024-02-24T04:45:38.813Z,93493.00
2024-02-24T04:46:38.812Z,93494.00
2024-02-24T04:47:38.855Z,93494.00
2024-02-24T04:48:38.921Z,93497.00
2024-02-24T04:49:38.867Z,93499.00
2024-02-24T04:50:38.827Z,93504.00
2024-02-24T04:51:38.846Z,93507.00
2024-02-24T04:52:38.933Z,93506.00
2024-02-24T04:53:38.878Z,93507.00
2024-02-24T04:54:38.840Z,93504.00
2024-02-24T04:55:38.857Z,93503.00
2024-02-24T04:56:38.869Z,93501.00
2024-02-24T04:57:38.856Z,93501.00
2024-02-24T04:58:38.909Z,93499.00
2024-02-24T04:59:38.884Z,93500.00
2024-02-24T05:00:38.905Z,93502.00
2024-02-24T05:01:38.925Z,93507.00
2024-02-24T05:02:38.898Z,93510.00
2024-02-24T05:03:39.007Z,93511.00
2024-02-24T05:04:38.911Z,93515.00
2024-02-24T05:05:38.905Z,93515.00
2024-02-24T05:06:38.904Z,93516.00
2024-02-24T05:07:38.974Z,93515.00
2024-02-24T05:08:39.221Z,93515.00
2024-02-24T05:09:39.081Z,93515.00
2024-02-24T05:10:39.147Z,93515.00
2024-02-24T05:11:39.293Z,93511.00
2024-02-24T05:12:39.273Z,93512.00
2024-02-24T05:13:39.346Z,93510.00
2024-02-24T05:14:39.499Z,93507.00
2024-02-24T05:15:39.501Z,93509.00
2024-02-24T05:16:39.530Z,93511.00
2024-02-24T05:17:39.645Z,93510.00
2024-02-24T05:18:40.048Z,93509.00
2024-02-24T05:19:39.833Z,93508.00
2024-02-24T05:20:39.861Z,93504.00
2024-02-24T05:21:39.947Z,93508.00
2024-02-24T05:22:40.003Z,93508.00
2024-02-24T05:23:40.072Z,93512.00
2024-02-24T05:24:40.955Z,93514.00
2024-02-24T05:25:40.297Z,93518.00
2024-02-24T05:26:40.331Z,93519.00
2024-02-24T05:27:40.326Z,93523.00
2024-02-24T05:28:40.427Z,93524.00
2024-02-24T05:29:40.461Z,93526.00
2024-02-24T05:30:40.552Z,93528.00
2024-02-24T05:31:40.632Z,93527.00
2024-02-24T05:32:40.769Z,93522.00
2024-02-24T05:33:40.911Z,93523.00
2024-02-24T05:34:40.927Z,93521.00
2024-02-24T05:35:40.932Z,93521.00
2024-02-24T05:36:40.985Z,93521.00
2024-02-24T05:37:41.702Z,93521.00
2024-02-24T05:38:41.137Z,93524.00
2024-02-24T05:39:41.230Z,93528.00
2024-02-24T05:40:41.253Z,93531.00
2024-02-24T05:41:41.396Z,93532.00
2024-02-24T05:42:41.410Z,93535.00
2024-02-24T05:43:41.459Z,93537.00
2024-02-24T05:44:41.670Z,93537.00
2024-02-24T05:45:41.735Z,93537.00
2024-02-24T05:46:41.691Z,93538.00
2024-02-24T05:47:41.851Z,93538.00
2024-02-24T05:48:41.914Z,93541.00
2024-02-24T05:49:41.943Z,93543.00
2024-02-24T05:50:42.066Z,93545.00
2024-02-24T05:51:42.012Z,93546.00
2024-02-24T05:52:42.209Z,93544.00
2024-02-24T05:53:42.192Z,93547.00
2024-02-24T05:54:42.254Z,93547.00
2024-02-24T05:55:42.266Z,93548.00
2024-02-24T05:56:42.366Z,93548.00
2024-02-24T05:57:42.378Z,93550.00
2024-02-24T05:58:42.478Z,93552.00
2024-02-24T05:59:42.503Z,93551.00
2024-02-24T06:00:42.588Z,93549.00
2024-02-24T06:01:42.621Z,93553.00
2024-02-24T06:02:42.719Z,93554.00
2024-02-24T06:03:42.781Z,93553.00
2024-02-24T06:04:42.850Z,93550.00
2024-02-24T06:05:43.060Z,93550.00
2024-02-24T06:06:42.866Z,93551.00
2024-02-24T06:07:43.478Z,93554.00
2024-02-24T06:08:42.963Z,93556.00
2024-02-24T06:09:43.046Z,93559.00
2024-02-24T06:10:43.077Z,93565.00
2024-02-24T06:11:43.201Z,93565.00
2024-02-24T06:12:43.165Z,93563.00
2024-02-24T06:13:43.218Z,93563.00
2024-02-24T06:14:43.292Z,93564.00
2024-02-24T06:15:43.995Z,93563.00
2024-02-24T06:16:43.326Z,93564.00
2024-02-24T06:17:43.388Z,93565.00
2024-02-24T06:18:43.568Z,93570.00
2024-02-24T06:19:43.434Z,93572.00
2024-02-24T06:20:43.445Z,93571.00
2024-02-24T06:21:43.585Z,93573.00
2024-02-24T06:22:43.560Z,93578.00
2024-02-24T06:23:43.558Z,93579.00
2024-02-24T06:24:43.558Z,93585.00
2024-02-24T06:25:43.561Z,93587.00
2024-02-24T06:26:43.759Z,93586.00
2024-02-24T06:27:43.621Z,93584.00
2024-02-24T06:28:45.628Z,93583.00
2024-02-24T06:29:43.713Z,93580.00
2024-02-24T06:30:43.733Z,93583.00
2024-02-24T06:31:44.461Z,93583.00
2024-02-24T06:32:43.880Z,93584.00
2024-02-24T06:33:43.905Z,93587.00
2024-02-24T06:34:43.937Z,93588.00
2024-02-24T06:35:43.858Z,93592.00
2024-02-24T06:36:43.892Z,93594.00
2024-02-24T06:37:43.939Z,93594.00
2024-02-24T06:38:44.119Z,93595.00
2024-02-24T06:39:43.989Z,93594.00
2024-02-24T06:41:44.070Z,93600.00
2024-02-24T06:42:44.070Z,93602.00
2024-02-24T06:43:44.533Z,93603.00
2024-02-24T06:44:44.171Z,93600.00
2024-02-24T06:45:44.125Z,93601.00
2024-02-24T06:46:44.127Z,93599.00
2024-02-24T06:47:44.266Z,93601.00
2024-02-24T06:48:44.336Z,93604.00
2024-02-24T06:49:44.243Z,93605.00
2024-02-24T06:50:44.247Z,93604.00
2024-02-24T06:51:44.255Z,93597.00
2024-02-24T06:52:44.245Z,93599.00
2024-02-24T06:53:44.362Z,93597.00
2024-02-24T06:54:44.321Z,93599.00
2024-02-24T06:55:44.325Z,93597.00
2024-02-24T06:56:44.373Z,93599.00
2024-02-24T06:57:45.098Z,93596.00
2024-02-24T06:58:44.390Z,93593.00
2024-02-24T06:59:44.433Z,93593.00
2024-02-24T07:00:44.441Z,93593.00
2024-02-24T07:01:44.424Z,93595.00
2024-02-24T07:02:44.522Z,93596.00
2024-02-24T07:03:44.494Z,93600.00
2024-02-24T07:04:44.544Z,93602.00
2024-02-24T07:05:44.611Z,93607.00
2024-02-24T07:06:44.579Z,93613.00
2024-02-24T07:07:44.698Z,93617.00
2024-02-24T07:08:44.705Z,93621.00
2024-02-24T07:09:44.712Z,93623.00
2024-02-24T07:10:44.818Z,93626.00
2024-02-24T07:11:44.909Z,93628.00
2024-02-24T07:12:44.863Z,93629.00
2024-02-24T07:13:45.037Z,93630.00
2024-02-24T07:14:45.098Z,93629.00
2024-02-24T07:15:45.032Z,93632.00
2024-02-24T07:16:45.078Z,93631.00
2024-02-24T07:17:45.236Z,93633.00
2024-02-24T07:18:45.501Z,93635.00
2024-02-24T07:19:45.264Z,93643.00
2024-02-24T07:20:45.414Z,93646.00
2024-02-24T07:21:45.404Z,93649.00
2024-02-24T07:22:45.489Z,93650.00
2024-02-24T07:23:45.570Z,93649.00
2024-02-24T07:24:45.627Z,93651.00
2024-02-24T07:25:45.643Z,93650.00
2024-02-24T07:26:49.373Z,93650.00
2024-02-24T07:27:46.830Z,93652.00
2024-02-24T07:28:45.715Z,93653.00
2024-02-24T07:29:45.852Z,93656.00
2024-02-24T07:30:45.844Z,93653.00
2024-02-24T07:31:45.772Z,93653.00
2024-02-24T07:32:47.660Z,93651.00
2024-02-24T07:33:46.122Z,93652.00
2024-02-24T07:34:45.977Z,93651.00
2024-02-24T07:35:45.897Z,93650.00
2024-02-24T07:36:45.937Z,93656.00
2024-02-24T07:37:46.538Z,93658.00
2024-02-24T07:38:46.137Z,93660.00
2024-02-24T07:39:46.116Z,93661.00
2024-02-24T07:40:46.992Z,93661.00
2024-02-24T07:41:46.453Z,93661.00
2024-02-24T07:42:46.319Z,93667.00
2024-02-24T07:43:46.461Z,93668.00
2024-02-24T07:44:46.457Z,93668.00
2024-02-24T07:45:46.531Z,93670.00
2024-02-24T07:46:46.572Z,93669.00
2024-02-24T07:47:46.656Z,93666.00
2024-02-24T07:48:46.724Z,93666.00
2024-02-24T07:49:46.889Z,93670.00
2024-02-24T07:50:46.928Z,93673.00
2024-02-24T07:51:46.880Z,93676.00
2024-02-24T07:52:47.903Z,93678.00
2024-02-24T07:53:47.118Z,93681.00
2024-02-24T07:54:47.172Z,93684.00
2024-02-24T07:55:47.489Z,93688.00
2024-02-24T07:56:47.249Z,93688.00
2024-02-24T07:57:47.366Z,93691.00
2024-02-24T07:58:47.302Z,93695.00
2024-02-24T07:59:47.456Z,93697.00
2024-02-24T08:00:51.873Z,93700.00
2024-02-24T08:01:48.458Z,93700.00
2024-02-24T08:02:47.528Z,93700.00
2024-02-24T08:03:47.507Z,93697.00
2024-02-24T08:04:47.459Z,93693.00
2024-02-24T08:05:47.537Z,93697.00
2024-02-24T08:06:47.475Z,93703.00
2024-02-24T08:07:47.457Z,93702.00
2024-02-24T08:08:47.476Z,93701.00
2024-02-24T08:09:47.413Z,93698.00
2024-02-24T08:10:47.502Z,93700.00
2024-02-24T08:11:47.537Z,93696.00
2024-02-24T08:12:47.629Z,93698.00
2024-02-24T08:13:47.681Z,93701.00
2024-02-24T08:14:47.687Z,93698.00
2024-02-24T08:15:47.657Z,93698.00
2024-02-24T08:16:47.724Z,93700.00
2024-02-24T08:17:47.849Z,93703.00
2024-02-24T08:18:48.627Z,93707.00
2024-02-24T08:19:47.855Z,93707.00
2024-02-24T08:20:47.888Z,93707.00
2024-02-24T08:21:47.950Z,93705.00
2024-02-24T08:22:47.909Z,93707.00
2024-02-24T08:23:48.067Z,93707.00
2024-02-24T08:24:48.070Z,93706.00
2024-02-24T08:25:48.128Z,93703.00
2024-02-24T08:26:48.147Z,93702.00
2024-02-24T08:27:48.162Z,93701.00
2024-02-24T08:28:48.193Z,93705.00
2024-02-24T08:29:48.273Z,93709.00
2024-02-24T08:30:49.036Z,93712.00
2024-02-24T08:31:48.348Z,93710.00
2024-02-24T08:32:49.816Z,93709.00
2024-02-24T08:33:48.407Z,93706.00
2024-02-24T08:34:48.435Z,93702.00
2024-02-24T08:35:48.493Z,93704.00
2024-02-24T08:36:48.656Z,93709.00
2024-02-24T08:37:48.498Z,93711.00
2024-02-24T08:38:48.578Z,93708.00
2024-02-24T08:39:48.562Z,93709.00
2024-02-24T08:40:48.726Z,93708.00
2024-02-24T08:41:48.672Z,93708.00
2024-02-24T08:42:48.706Z,93710.00
2024-02-24T08:43:48.738Z,93713.00
2024-02-24T08:44:48.754Z,93712.00
2024-02-24T08:45:48.800Z,93708.00
2024-02-24T08:46:48.799Z,93710.00
2024-02-24T08:47:48.820Z,93712.00
2024-02-24T08:48:49.506Z,93714.00
2024-02-24T08:49:48.799Z,93715.00
2024-02-24T08:50:48.976Z,93716.00
2024-02-24T08:51:48.965Z,93716.00
2024-02-24T08:53:48.991Z,93715.00
2024-02-24T08:54:48.956Z,93717.00
2024-02-24T08:55:49.000Z,93723.00
2024-02-24T08:56:49.191Z,93726.00
2024-02-24T08:57:49.113Z,93731.00
2024-02-24T08:58:49.052Z,93731.00
2024-02-24T08:59:49.068Z,93727.00
2024-02-24T09:00:49.171Z,93732.00
2024-02-24T09:01:49.100Z,93736.00
2024-02-24T09:02:49.283Z,93738.00
2024-02-24T09:03:49.315Z,93741.00
2024-02-24T09:04:49.231Z,93735.00
2024-02-24T09:05:49.311Z,93729.00
2024-02-24T09:06:49.377Z,93721.00
2024-02-24T09:07:49.378Z,93718.00
2024-02-24T09:08:49.265Z,93722.00
2024-02-24T09:09:50.043Z,93723.00
2024-02-24T09:10:49.392Z,93725.00
2024-02-24T09:11:49.364Z,93722.00
2024-02-24T09:12:49.286Z,93720.00
2024-02-24T09:13:49.353Z,93723.00
2024-02-24T09:14:49.401Z,93728.00
2024-02-24T09:15:49.347Z,93731.00
2024-02-24T09:16:49.361Z,93733.00
2024-02-24T09:17:49.408Z,93732.00
2024-02-24T09:18:49.598Z,93730.00
2024-02-24T09:19:49.537Z,93729.00
2024-02-24T09:20:49.538Z,93725.00
2024-02-24T09:21:49.473Z,93727.00
2024-02-24T09:22:49.398Z,93725.00
2024-02-24T09:23:49.427Z,93726.00
2024-02-24T09:24:49.480Z,93727.00
2024-02-24T09:25:49.467Z,93727.00
2024-02-24T09:26:49.497Z,93728.00
2024-02-24T09:27:49.523Z,93731.00
2024-02-24T09:28:49.457Z,93732.00
2024-02-24T09:29:49.519Z,93736.00
2024-02-24T09:30:49.513Z,93740.00
2024-02-24T09:31:49.513Z,93740.00
2024-02-24T09:32:49.667Z,93738.00
2024-02-24T09:33:49.562Z,93740.00
2024-02-24T09:34:49.659Z,93743.00
2024-02-24T09:35:49.549Z,93744.00
2024-02-24T09:36:49.544Z,93743.00
2024-02-24T09:37:49.555Z,93739.00
2024-02-24T09:38:49.765Z,93740.00
2024-02-24T09:39:49.532Z,93741.00
2024-02-24T09:40:49.541Z,93737.00
2024-02-24T09:41:49.699Z,93737.00
2024-02-24T09:42:49.586Z,93739.00
2024-02-24T09:43:49.536Z,93739.00
2024-02-24T09:44:49.618Z,93739.00
2024-02-24T09:45:49.681Z,93741.00
2024-02-24T09:46:49.629Z,93742.00
2024-02-24T09:47:49.588Z,93744.00
2024-02-24T09:48:49.674Z,93747.00
2024-02-24T09:49:49.729Z,93746.00
2024-02-24T09:50:49.629Z,93744.00
2024-02-24T09:51:49.682Z,93741.00
2024-02-24T09:52:49.609Z,93736.00
2024-02-24T09:53:49.697Z,93735.00
2024-02-24T09:54:49.616Z,93734.00
2024-02-24T09:55:49.717Z,93730.00
2024-02-24T09:56:49.670Z,93731.00
2024-02-24T09:57:49.688Z,93734.00
2024-02-24T09:58:49.696Z,93735.00
2024-02-24T09:59:49.844Z,93737.00
2024-02-24T10:00:49.764Z,93724.00
2024-02-24T10:01:49.776Z,93728.00
2024-02-24T10:02:49.806Z,93731.00
2024-02-24T10:03:50.341Z,93730.00
2024-02-24T10:04:49.875Z,93726.00
2024-02-24T10:05:50.013Z,93725.00
2024-02-24T10:06:49.850Z,93723.00
2024-02-24T10:07:49.855Z,93725.00
2024-02-24T10:08:50.070Z,93725.00
2024-02-24T10:09:50.046Z,93727.00
2024-02-24T10:10:50.109Z,93735.00
2024-02-24T10:11:50.094Z,93738.00
2024-02-24T10:12:50.149Z,93739.00
2024-02-24T10:13:50.234Z,93744.00
2024-02-24T10:14:50.377Z,93747.00
2024-02-24T10:15:50.372Z,93746.00
2024-02-24T10:16:50.385Z,93745.00
2024-02-24T10:17:50.647Z,93744.00
2024-02-24T10:18:50.644Z,93739.00
2024-02-24T10:19:50.731Z,93738.00
2024-02-24T10:20:50.773Z,93740.00
2024-02-24T10:21:50.773Z,93742.00
2024-02-24T10:22:50.914Z,93744.00
2024-02-24T10:23:51.003Z,93745.00
2024-02-24T10:24:51.040Z,93745.00
2024-02-24T10:25:51.065Z,93744.00
2024-02-24T10:26:51.121Z,93746.00
2024-02-24T10:27:51.587Z,93747.00
2024-02-24T10:28:51.301Z,93746.00
2024-02-24T10:29:51.310Z,93748.00
2024-02-24T10:30:51.349Z,93749.00
2024-02-24T10:31:51.426Z,93764.00
2024-02-24T10:32:53.288Z,93763.00
2024-02-24T10:33:51.735Z,93762.00
2024-02-24T10:34:51.678Z,93759.00
2024-02-24T10:35:52.581Z,93755.00
2024-02-24T10:36:51.756Z,93753.00
2024-02-24T10:38:09.332Z,93753.00
2024-02-24T10:39:51.819Z,93755.00
2024-02-24T10:40:51.825Z,93758.00
2024-02-24T10:41:51.870Z,93757.00
2024-02-24T10:42:51.858Z,93754.00
2024-02-24T10:43:52.765Z,93750.00
2024-02-24T10:44:51.966Z,93746.00
2024-02-24T10:45:51.798Z,93749.00
2024-02-24T10:46:51.857Z,93746.00
2024-02-24T10:47:52.824Z,93748.00
2024-02-24T10:48:51.895Z,93741.00
2024-02-24T10:49:51.859Z,93738.00
2024-02-24T10:50:51.909Z,93736.00
2024-02-24T10:51:51.839Z,93737.00
2024-02-24T10:52:51.948Z,93740.00
2024-02-24T10:53:51.868Z,93741.00
2024-02-24T10:54:51.817Z,93741.00
2024-02-24T10:55:51.914Z,93738.00
2024-02-24T10:56:52.000Z,93738.00
2024-02-24T10:57:52.008Z,93737.00
2024-02-24T10:58:52.624Z,93737.00
2024-02-24T10:59:51.879Z,93736.00
2024-02-24T11:00:51.939Z,93738.00
2024-02-24T11:01:52.070Z,93740.00
2024-02-24T11:02:52.059Z,93743.00
2024-02-24T11:03:52.047Z,93744.00
2024-02-24T11:04:52.077Z,93741.00
2024-02-24T11:05:52.308Z,93737.00
2024-02-24T11:06:52.261Z,93738.00
2024-02-24T11:07:52.208Z,93741.00
2024-02-24T11:08:52.394Z,93742.00
2024-02-24T11:09:52.386Z,93740.00
2024-02-24T11:10:52.402Z,93738.00
2024-02-24T11:11:52.445Z,93738.00
2024-02-24T11:12:52.435Z,93736.00
2024-02-24T11:14:00.386Z,93738.00
2024-02-24T11:14:53.626Z,93735.00
2024-02-24T11:15:52.505Z,93729.00
2024-02-24T11:16:52.548Z,93724.00
2024-02-24T11:17:53.404Z,93724.00
2024-02-24T11:18:53.780Z,93727.00
2024-02-24T11:19:52.684Z,93731.00
2024-02-24T11:20:52.863Z,93734.00
2024-02-24T11:21:52.776Z,93733.00
2024-02-24T11:22:52.833Z,93732.00
2024-02-24T11:23:52.953Z,93729.00
2024-02-24T11:24:52.886Z,93728.00
2024-02-24T11:25:52.951Z,93735.00
2024-02-24T11:26:53.038Z,93736.00
2024-02-24T11:27:53.007Z,93737.00
2024-02-24T11:28:53.081Z,93731.00
2024-02-24T11:29:53.172Z,93723.00
2024-02-24T11:30:53.152Z,93717.00
2024-02-24T11:31:53.220Z,93720.00
2024-02-24T11:32:53.465Z,93724.00
2024-02-24T11:33:53.500Z,93727.00
2024-02-24T11:34:53.474Z,93725.00
2024-02-24T11:35:53.421Z,93721.00
2024-02-24T11:36:53.414Z,93720.00
2024-02-24T11:37:53.494Z,93722.00
2024-02-24T11:38:53.619Z,93726.00
2024-02-24T11:39:53.569Z,93729.00
2024-02-24T11:40:53.622Z,93729.00
2024-02-24T11:41:53.757Z,93727.00
2024-02-24T11:42:53.710Z,93727.00
2024-02-24T11:43:53.754Z,93726.00
2024-02-24T11:44:53.832Z,93725.00
2024-02-24T11:45:53.907Z,93726.00
2024-02-24T11:46:54.110Z,93723.00
2024-02-24T11:47:54.064Z,93720.00